Weather observations for the past three days for
Ephraim-Gibraltar Airport
Metric (Imperial)
Date Time (cdt) Wind (kph) Vis. (km) Weather Sky Cond. Temperature (ºC) Relative Humidity Wind Chill (°C) Heat Index (°C) Pressure Precipitation (cm)
Air Dwpt 6 hour altimeter (cm) sea level (mb) 1 hr 3 hr 6 hr
Max. Min.
10 11:15 NW 15 16.09 Fair CLR 9.2 -3.8 40% 7 76.3 0.0
10 10:35 W 7 16.09 Light Rain SCT036 BKN060 OVC080 7 -3.8 46% 6 76.28 0.0
10 10:15 W 11 16.09 Overcast SCT030 BKN060 OVC100 7.5 -2.6 49% 6 76.25 0.0
10 09:55 W 13 16.09 Overcast SCT028 BKN060 OVC100 7 -2.5 51% 5 76.25 0.0
10 09:35 W 7 16.09 Overcast SCT040 BKN055 OVC110 6.8 -3.3 49% 6 76.25 0.0
10 09:15 NW 15 16.09 Overcast SCT050 SCT060 OVC110 7.7 -4 44% 5 76.23 0.0
10 08:55 W 13 16.09 Overcast SCT060 OVC110 7.2 -3.5 47% 5 76.23 0.0
10 08:35 NW 9 16.09 Overcast OVC110 7 -3.2 49% 5 76.2 0.0
10 08:15 NW 13 16.09 Mostly Cloudy BKN110 7.1 -3.3 48% 5 76.2 0.0
10 07:55 W 7 16.09 Partly Cloudy SCT110 7 -3.6 47% 6 76.2 0.0
10 07:35 W 6 16.09 Fair CLR 6.4 -2.7 53% 76.2 0.0
10 07:15 W 7 16.09 Fair CLR 5.5 -2.2 58% 4 76.17 0.0
10 06:55 W 7 16.09 Fair CLR 4.7 -1.8 4.7 2.5 63% 3 76.17 0.0
10 06:35 W 7 16.09 Fair CLR 4.2 -2.2 63% 3 76.15 0.0
10 06:15 W 7 16.09 Fair CLR 3.5 -3.1 62% 2 76.15 0.0
10 05:55 W 9 16.09 Fair CLR 2.7 -3.5 64% 0 76.12 0.0
10 05:35 W 7 16.09 Fair CLR 2.6 -3.5 64% 1 76.1 0.0
10 05:15 W 9 16.09 Fair CLR 2.8 -3.6 63% 1 76.1 0.0
10 04:55 W 9 16.09 Fair CLR 3 -3.7 62% 1 76.1 0.0
10 04:35 NW 7 16.09 Fair CLR 3.1 -4 60% 1 76.05 0.0
10 04:10 NW 11 16.09 Fair CLR 3.5 -4.4 57% 1 76.05 0.0
10 03:55 NW 11 16.09 Fair CLR 3.7 -4.5 55% 1 76.02 0.0
10 03:35 NW 13 16.09 Fair CLR 4 -4.5 54% 1 76.02 0.0
10 03:15 NW 11 16.09 Fair CLR 4.1 -4.5 54% 2 76.02 0.0
10 02:55 W 9 16.09 Fair CLR 4 -3.5 58% 2 76 0.0
10 02:35 W 6 16.09 Fair CLR 4.2 -3.7 57% 75.97 0.0
10 02:15 W 9 16.09 Fair CLR 4 -3.6 58% 2 75.97 0.0
10 01:55 W 7 16.09 Fair CLR 4 -3 61% 2 75.95 0.0
10 01:35 W 7 16.09 Fair CLR 4 -3.1 60% 2 75.95 0.0
10 01:15 W 7 16.09 Fair CLR 4 -3.5 58% 2 75.95 0.0
10 00:55 W 7 16.09 Fair CLR 4.3 -4.8 8.1 4.3 52% 3 75.92 0.0
10 00:35 W 7 16.09 Fair CLR 4.6 -5.1 50% 3 75.92 0.0
10 00:15 NW 9 16.09 Fair CLR 4.6 -5.3 49% 3 75.92 0.0
09 23:55 NW 7 16.09 Fair CLR 4.8 -5.1 49% 3 75.92 0.0
09 23:35 NW 7 16.09 Fair CLR 4.8 -4.5 51% 3 75.9 0.0
09 23:15 NW 9 16.09 Fair CLR 4.7 -4 54% 3 75.9 0.0
09 22:55 NW 9 16.09 Fair CLR 5.3 -4.8 48% 3 75.87 0.0
09 22:35 NW 11 16.09 Fair CLR 5.4 -5.5 46% 3 75.87 0.0
09 22:15 NW 11 16.09 Fair CLR 5.8 -4.9 47% 4 75.84 0.0
09 21:55 N 15 16.09 Fair CLR 5.9 -4.5 48% 3 75.84 0.0
09 21:35 NW 11 16.09 Fair CLR 4.8 -1.8 63% 3 75.82 0.0
09 21:15 N 11 16.09 Fair CLR 5.1 -0.3 68% 3 75.82 0.0
09 20:50 N 11 16.09 Fair CLR 5.6 0.5 70% 3 75.77 0.0
09 20:35 N 13 16.09 Fair CLR 5.9 -0.1 66% 3 75.74 0.0
09 20:15 N 11 16.09 Partly Cloudy SCT090 6.2 0 65% 4 75.72 0.0
09 19:55 N 15 16.09 Partly Cloudy SCT090 6.6 0 63% 4 75.67 0.0
09 19:35 N 13 16.09 Mostly Cloudy BKN090 7.2 0 61% 5 75.64 0.0
09 19:15 N 13 16.09 Partly Cloudy SCT090 7.5 -0.1 59% 5 75.62 0.0
09 18:55 N 15 16.09 Fair CLR 8.3 -0.9 14.7 8.3 53% 6 75.59 0.0
09 18:35 N 13 16.09 Partly Cloudy SCT085 8.6 -0.5 53% 7 75.54 0.0
09 18:15 N 20 G 33 16.09 Partly Cloudy SCT085 10.5 -3.9 36% 75.51 0.0
09 17:50 N 20 G 30 16.09 Fair CLR 11.6 -5.3 30% 75.46 0.0
09 17:35 N 22 G 33 16.09 Fair CLR 11.7 -5 31% 75.44 0.0
09 17:15 N 26 16.09 Partly Cloudy SCT090 12.2 -4.8 30% 75.41 0.0
09 16:55 NW 26 G 35 16.09 Partly Cloudy SCT100 13 -4.7 29% 75.36 0.0
09 16:35 N 24 G 37 16.09 Mostly Cloudy BKN100 14 -5.1 26% 75.34 0.0
09 16:15 NW 20 G 44 16.09 Mostly Cloudy BKN100 13.8 -6.1 25% 75.31 0.0
09 15:55 NW 19 G 30 16.09 Overcast OVC090 13.3 -6.5 25% 75.26 0.0
09 15:35 NW 19 G 26 16.09 Overcast BKN090 OVC110 13.3 -5.8 26% 75.23 0.0
09 15:15 NW 17 G 26 16.09 Overcast OVC090 13.3 -5.1 28% 75.23 0.0
09 14:55 NW 17 G 30 16.09 Overcast OVC090 13.3 -6.3 25% 75.21 0.0
09 14:35 NW 20 G 28 16.09 Mostly Cloudy BKN090 14.2 -5.2 26% 75.18 0.0
09 14:15 NW 22 16.09 Mostly Cloudy BKN090 BKN120 14.3 -5.5 25% 75.18 0.0
09 13:55 N 22 G 30 16.09 Partly Cloudy SCT075 SCT090 SCT110 14.3 -6.2 24% 75.16 0.0
09 13:15 N 19 16.09 Overcast OVC080 11.9 -5.4 30% 75.11 0.0
09 12:55 N 15 G 30 16.09 Mostly Cloudy BKN080 12.4 -5.4 14.9 9.5 29% 75.08 0.0
09 12:35 NW 11 16.09 Mostly Cloudy SCT075 BKN100 14.3 -2.4 32% 75.06 0.0
09 12:15 W 15 16.09 Overcast OVC080 12.7 0.2 43% 75.06 0.0
09 11:55 W 9 16.09 Overcast OVC080 11.9 1.1 48% 75.03 0.0
09 11:35 W 13 G 26 16.09 Overcast OVC070 12 1.2 48% 75.03 0.0
09 11:15 W 19 G 26 16.09 Overcast OVC070 13.1 0.4 42% 75.01 0.0
09 10:55 SW 13 G 30 16.09 Overcast OVC070 12.5 0 43% 75.01 0.0
09 10:35 SW 17 G 26 16.09 Overcast OVC070 12.4 -1.3 39% 75.01 0.0
09 10:15 W 13 16.09 Overcast OVC070 11.6 -1.8 40% 75.01 0.0
09 09:55 W 7 16.09 Overcast OVC070 10.6 -1.6 43% 75.01 0.0
09 09:35 W 9 16.09 Overcast OVC070 10.9 -2.3 40% 74.98 0.0
09 09:15 W 13 16.09 Overcast SCT050 BKN070 OVC080 11.2 -3 37% 74.98 0.0
09 08:55 NW 11 16.09 Overcast SCT046 OVC050 10.9 -1.7 42% 74.96 0.0
09 08:35 W 7 16.09 Light Rain SCT047 BKN065 OVC095 9.7 -1 48% 9 75.01 0.0
09 08:15 W 7 16.09 Mostly Cloudy BKN100 10.1 -1 46% 74.96 0.0
09 07:55 NW 19 16.09 Partly Cloudy SCT100 10.5 -1.7 43% 74.93 0.0
09 07:35 NW 15 16.09 Partly Cloudy SCT110 10 -1.1 46% 8 74.88 0.0
09 07:15 NW 11 16.09 Overcast OVC110 9.6 0.9 55% 8 74.85 0.0
09 06:55 NW 13 16.09 Overcast OVC120 9.6 1.5 10 7.3 57% 8 74.85 0.0
09 06:35 W 11 16.09 Mostly Cloudy BKN120 10 1.3 55% 9 74.83 0.0
09 06:10 W 9 16.09 Partly Cloudy SCT120 9.5 3.2 65% 8 74.8 0.0
09 05:55 W 9 16.09 Fair CLR 9.3 3.8 69% 8 74.8 0.0
09 05:35 W 11 16.09 Fair CLR 9.1 3 66% 8 74.8 0.0
09 05:15 W 11 16.09 Fair CLR 8.4 2.3 66% 7 74.8 0.0
09 04:55 W 7 16.09 Partly Cloudy SCT110 8.3 2.2 66% 7 74.78 0.0
09 04:35 SW 7 16.09 Overcast OVC110 7.9 2.2 68% 7 74.8 0.0
09 04:15 SW 6 16.09 Overcast OVC120 7.5 2.4 70% 74.83 0.0
09 03:55 Calm 16.09 Mostly Cloudy BKN120 7.7 2.2 68% 74.83 0.0
09 03:35 Calm 16.09 Overcast OVC120 8.6 2.2 64% 74.85 0.0
09 03:15 S 6 16.09 Overcast OVC120 8.6 1.8 63% 74.85 0.0
09 02:55 S 7 16.09 Mostly Cloudy BKN120 8.6 1.5 61% 8 74.85 0.0
09 02:35 S 7 16.09 Partly Cloudy SCT100 8.3 1.8 64% 7 74.88 0.0
09 02:15 S 9 16.09 Partly Cloudy SCT100 7.6 2.1 68% 6 74.9 0.0
09 01:55 S 11 16.09 Fair CLR 7.6 2 68% 6 74.93 0.0
09 01:35 S 13 16.09 Fair CLR 8 1.7 65% 6 74.93 0.0
09 01:15 S 11 16.09 Fair CLR 8.5 1.2 60% 7 74.98 0.0
09 00:55 S 9 16.09 Partly Cloudy SCT110 8.4 0.7 11.1 7.5 59% 7 75.01 0.0
09 00:35 S 11 16.09 Mostly Cloudy BKN110 8.2 0.8 60% 7 75.01 0.0
09 00:15 S 13 16.09 Partly Cloudy SCT120 8.6 0.7 58% 7 75.03 0.0
08 23:55 S 9 16.09 Mostly Cloudy BKN120 8.5 0.8 59% 7 75.06 0.0
08 23:35 S 9 16.09 Mostly Cloudy BKN110 8.5 -0.1 55% 7 75.08 0.0
08 23:15 S 17 16.09 Overcast OVC110 8.8 -1.5 49% 7 75.08 0.0
08 22:55 S 13 16.09 Overcast OVC110 8.7 -1.6 49% 7 75.11 0.0
08 22:35 S 11 16.09 Overcast OVC110 7.7 -0.8 55% 6 75.11 0.0
08 22:15 SE 11 16.09 Partly Cloudy SCT110 8 -2 50% 6 75.16 0.0
08 21:55 S 9 16.09 Mostly Cloudy SCT090 BKN100 8.3 -2 49% 7 75.16 0.0
08 21:35 S 13 16.09 Overcast SCT075 OVC090 8.8 -2.2 46% 7 75.21 0.0
08 21:15 S 15 16.09 Overcast OVC090 9.3 -3.2 42% 7 75.21 0.0
08 20:55 S 9 16.09 Overcast BKN090 OVC120 9.6 -3.5 40% 9 75.21 0.0
08 20:35 S 11 16.09 Overcast BKN090 OVC120 9.7 -4 38% 8 75.23 0.0
08 19:55 S 17 G 28 16.09 Overcast OVC100 10 -4 37% 8 75.21 0.0
08 19:35 S 15 16.09 Overcast SCT070 OVC100 10.5 -4 36% 75.21 0.0
08 19:15 S 17 G 26 16.09 Mostly Cloudy BKN100 10.7 -3.9 36% 75.21 0.0
08 18:55 S 13 G 26 16.09 Overcast OVC100 11.1 -3.1 16.6 11.1 37% 75.21 0.0
08 18:35 S 13 16.09 Mostly Cloudy BKN100 11.5 -1.5 41% 75.23 0.0
08 18:15 S 9 16.09 Mostly Cloudy BKN100 11.7 -0.3 44% 75.23 0.0
08 17:55 S 7 16.09 Overcast OVC100 11.6 0 45% 75.23 0.0
08 17:35 S 11 16.09 Mostly Cloudy BKN100 12.4 -0.6 41% 75.26 0.0
08 17:15 S 9 16.09 Overcast OVC100 12.7 -1 39% 75.26 0.0
08 16:55 W 6 16.09 Overcast OVC090 15 -3.7 28% 75.26 0.0
08 16:35 W 11 16.09 Overcast OVC090 15.1 -2.6 30% 75.26 0.0
08 16:15 SW 7 16.09 Overcast SCT070 OVC090 15.6 -5 24% 75.26 0.0
08 15:35 SW 13 16.09 Mostly Cloudy BKN090 BKN110 15.5 -5.8 23% 75.31 0.0
08 14:55 SW 19 G 31 16.09 Partly Cloudy SCT100 16.1 -5.7 22% 75.34 0.0
08 14:35 SW 13 G 31 16.09 Partly Cloudy SCT090 15.9 -5.7 22% 75.34 0.0
08 14:15 SW 17 G 31 16.09 Mostly Cloudy BKN100 15.5 -6.1 22% 75.36 0.0
08 13:55 SW 15 G 31 16.09 Mostly Cloudy BKN100 15.2 -5.7 23% 75.39 0.0
08 13:35 SW 15 G 35 16.09 Mostly Cloudy BKN100 14.8 -5.7 24% 75.41 0.0
08 13:15 SW 19 G 33 16.09 Partly Cloudy SCT100 15.2 -5.8 23% 75.44 0.0
08 12:55 SW 13 G 28 16.09 Fair CLR 15.1 -5.3 15.2 5.6 24% 75.46 0.0
08 12:35 SW 13 G 26 16.09 Fair CLR 14.6 -5 26% 75.49 0.0
08 12:15 W 15 G 26 16.09 Fair CLR 13.7 -4.8 28% 75.51 0.0
08 11:55 SW 15 G 28 16.09 Fair CLR 13.2 -4.3 30% 75.51 0.0
08 11:35 SW 13 16.09 Fair CLR 12.7 -4.1 31% 75.54 0.0
08 11:15 SW 15 16.09 Fair CLR 12.2 -3.2 34% 75.57 0.0
08 10:55 W 11 16.09 Fair CLR 11.4 -2.9 37% 75.57 0.0
08 10:15 SW 11 16.09 Fair CLR 9.5 -1.5 47% 8 75.59 0.0
08 09:55 SW 13 16.09 Fair CLR 9.4 -1.3 48% 8 75.62 0.0
08 09:35 SW 17 16.09 Fair CLR 8.6 -1.1 51% 6 75.62 0.0
08 09:15 SW 19 G 28 16.09 Fair CLR 7.7 -1.6 52% 5 75.64 0.0
08 08:55 SW 15 G 31 16.09 Fair CLR 7.8 -0.8 55% 6 75.64 0.0
08 08:35 W 19 G 30 16.09 Fair CLR 7.1 -1 57% 4 75.64 0.0
08 08:15 W 15 16.09 Fair CLR 6.6 -0.7 60% 4 75.64 0.0
08 07:55 W 15 G 26 16.09 Fair CLR 6.5 -1.5 57% 4 75.64 0.0
08 07:35 W 15 16.09 Fair CLR 6.1 -1.8 57% 3 75.64 0.0
08 07:15 W 9 16.09 Fair CLR 6 -1.8 58% 4 75.64 0.0
08 06:55 W 13 16.09 Fair CLR 5.5 -2 5.5 0.9 59% 3 75.64 0.0
08 06:35 W 9 16.09 Fair CLR 5.2 -2.1 60% 3 75.64 0.0
08 06:15 W 7 16.09 Fair CLR 4.4 0.2 74% 3 75.62 0.0
08 05:55 W 9 16.09 Fair CLR 3.1 1.1 87% 1 75.62 0.0
08 05:35 W 6 16.09 Partly Cloudy SCT090 3.1 0.7 84% 75.62 0.0
08 05:15 SW 7 16.09 Mostly Cloudy BKN100 3.7 0.7 81% 2 75.62 0.0
08 04:55 SW 6 16.09 Overcast OVC100 4 0.3 77% 75.62 0.0
08 04:35 W 6 16.09 Overcast OVC090 3.6 -0.3 76% 75.64 0.0
08 04:15 Calm 16.09 Overcast OVC090 3.1 -1.1 74% 75.64 0.0
08 03:55 Calm 16.09 Mostly Cloudy SCT080 BKN100 2.3 -1.8 75% 75.67 0.0
08 03:35 Calm 16.09 Mostly Cloudy SCT080 BKN100 3.1 -2.1 69% 75.67 0.0
08 03:15 Calm 16.09 Overcast SCT080 OVC100 2.4 -1.6 75% 75.67 0.0
08 02:55 Calm 16.09 Overcast SCT080 OVC100 2.6 -1.2 76% 75.69 0.0
08 02:30 Calm 16.09 Overcast SCT080 OVC100 2.2 -1.2 78% 75.69 0.0
08 02:15 Calm 16.09 Overcast SCT080 OVC100 2.1 -1.3 78% 75.69 0.0
08 01:55 Calm 16.09 Overcast SCT080 OVC100 1.7 -1.6 79% 75.72 0.0
08 01:35 Calm 16.09 Mostly Cloudy BKN100 1.3 -2 79% 75.74 0.0
08 01:15 Calm 16.09 Overcast OVC090 1.8 -1.9 77% 75.77 0.0
08 00:55 NE 6 16.09 Overcast OVC090 2.1 -1.5 6 1.9 77% 75.77 0.0
08 00:35 NE 6 16.09 Overcast OVC090 2.3 -1.6 76% 75.77 0.0
08 00:15 SW 6 16.09 Mostly Cloudy BKN090 2.5 -1.9 73% 75.77 0.0
07 23:55 SW 7 16.09 Partly Cloudy SCT075 SCT100 SCT120 2.3 -1.8 75% 0 75.79 0.0
07 23:35 SW 6 16.09 Overcast SCT085 OVC110 2.5 -1.6 75% 75.79 0.0
07 23:15 SW 6 16.09 Overcast SCT095 OVC110 2.7 -1.5 74% 75.79 0.0
07 22:55 SW 7 16.09 Overcast OVC100 2.3 -1.5 76% 0 75.79 0.0
07 22:35 S 7 16.09 Mostly Cloudy SCT090 BKN110 2.2 -1.5 77% 0 75.77 0.0
07 22:15 S 6 16.09 Fair CLR 2.5 -1.5 75% 75.77 0.0
07 21:55 SW 9 16.09 Fair CLR 2.5 -1.3 76% 0 75.77 0.0
07 21:35 S 9 16.09 Fair CLR 2.6 -1.5 75% 0 75.79 0.0
07 21:15 S 9 16.09 Fair CLR 2.8 -1.6 73% 1 75.77 0.0
07 20:55 S 11 16.09 Fair CLR 3 -2 70% 0 75.77 0.0
07 20:35 S 11 16.09 Fair CLR 3.5 -2.1 67% 1 75.77 0.0
07 20:15 S 13 16.09 Partly Cloudy SCT100 4 -2.5 63% 1 75.74 0.0
07 19:55 S 15 16.09 Mostly Cloudy BKN100 4.7 -2.8 59% 2 75.72 0.0
07 19:35 S 9 16.09 Overcast OVC090 5.2 -3.1 55% 3 75.74 0.0
07 19:15 S 7 16.09 Overcast OVC090 5.6 -3.2 54% 4 75.74 0.0
07 18:55 S 11 16.09 Overcast OVC090 6 -3.3 9 6 52% 4 75.74 0.0
07 18:35 S 9 16.09 Overcast OVC090 6.1 -3.9 49% 4 75.74 0.0
07 18:15 S 9 16.09 Mostly Cloudy BKN090 6.3 -4 48% 5 75.74 0.0
07 17:55 S 11 16.09 Partly Cloudy SCT055 SCT065 SCT090 6.3 -4.2 47% 4 75.74 0.0
07 17:35 S 17 16.09 Mostly Cloudy SCT055 SCT065 BKN090 7.5 -3.7 45% 5 75.74 0.0
07 17:15 S 9 16.09 Overcast SCT065 SCT075 OVC090 7.5 -3.6 46% 6 75.74 0.0
07 16:55 S 15 G 26 16.09 Mostly Cloudy SCT065 BKN090 7.8 -4.1 43% 6 75.74 0.0
07 16:35 S 15 16.09 Mostly Cloudy BKN090 8.5 -3.9 42% 6 75.74 0.0
07 16:15 S 11 G 26 16.09 Mostly Cloudy BKN090 8.1 -4.5 41% 6 75.74 0.0
07 15:55 SW 9 16.09 Overcast OVC090 7.9 -4.9 40% 7 75.74 0.0
07 15:35 SW 13 16.09 Overcast OVC090 8 -4.9 40% 6 75.77 0.0
07 15:15 W 13 16.09 Overcast OVC090 8 -5.2 39% 6 75.77 0.0
07 14:55 SW 15 16.09 Overcast OVC090 8 -4.8 40% 6 75.79 0.0
07 14:35 W 6 16.09 Overcast OVC090 8 -4.6 41% 75.79 0.0
07 14:15 SW 9 16.09 Overcast SCT060 SCT070 OVC080 7.8 -4.7 41% 6 75.79 0.0
07 13:55 SW 7 16.09 Overcast BKN065 OVC085 7.3 -4.6 43% 6 75.79 0.0
07 13:35 SW 15 16.09 Mostly Cloudy SCT060 SCT070 BKN085 7.6 -4.8 41% 5 75.82 0.0
07 13:15 W 15 16.09 Mostly Cloudy SCT060 SCT070 BKN085 7.7 -5 41% 5 75.82 0.0
07 12:55 W 11 16.09 Mostly Cloudy BKN085 7.4 -5 7.6 3.2 41% 6 75.82 0.0
07 12:35 SW 11 16.09 Overcast OVC085 7.5 -4.8 42% 6 75.84 0.0
07 12:15 SW 7 16.09 Mostly Cloudy SCT070 BKN085 7.3 -4.7 43% 6 75.84 0.0
07 11:55 W 17 G 26 16.09 Overcast OVC085 7 -4.9 43% 4 75.87 0.0
07 11:35 W 11 16.09 Overcast OVC085 6.8 -4.7 44% 5 75.9 0.0
Date Time (cdt) Wind (kph) Vis. (km) Weather Sky Cond. Air Dwpt Max. Min. Relative Humidity Wind Chill (°C) Heat Index (°C) altimeter (cm) sea level (mb) 1 hr 3 hr 6 hr
6 hour
Temperature (ºC) Pressure Precipitation (cm)